createdAt,value
2018-09-09T00:01:38.071Z,83.60
2018-09-09T00:03:41.627Z,82.80
2018-09-09T00:05:45.355Z,82.80
2018-09-09T00:07:48.946Z,82.60
2018-09-09T00:09:52.526Z,82.20
2018-09-09T00:11:56.268Z,81.90
2018-09-09T00:13:59.969Z,81.70
2018-09-09T00:16:03.505Z,81.50
2018-09-09T00:18:07.271Z,80.70
2018-09-09T00:20:10.882Z,80.90
2018-09-09T00:22:14.432Z,80.70
2018-09-09T00:24:17.976Z,80.40
2018-09-09T00:26:21.691Z,79.90
2018-09-09T00:28:25.326Z,79.70
2018-09-09T00:30:28.913Z,80.10
2018-09-09T00:32:32.515Z,80.10
2018-09-09T00:34:36.042Z,79.80
2018-09-09T00:36:39.608Z,79.60
2018-09-09T00:38:43.165Z,79.50
2018-09-09T00:40:46.834Z,79.50
2018-09-09T00:42:50.458Z,79.20
2018-09-09T00:44:54.022Z,79.50
2018-09-09T00:46:57.577Z,80.10
2018-09-09T00:49:06.623Z,80.30
2018-09-09T00:51:15.488Z,80.00
2018-09-09T00:53:24.354Z,80.60
2018-09-09T00:55:27.985Z,81.60
2018-09-09T00:57:31.592Z,82.30
2018-09-09T00:59:35.148Z,83.00
2018-09-09T01:01:38.764Z,82.60
2018-09-09T01:03:42.448Z,83.40
2018-09-09T01:05:46.023Z,83.20
2018-09-09T01:07:49.644Z,83.20
2018-09-09T01:09:53.278Z,83.20
2018-09-09T01:11:56.892Z,82.90
2018-09-09T01:14:00.574Z,82.60
2018-09-09T01:16:04.462Z,83.20
2018-09-09T01:18:08.294Z,84.40
2018-09-09T01:20:12.044Z,85.00
2018-09-09T01:22:15.647Z,84.60
2018-09-09T01:24:19.390Z,85.20
2018-09-09T01:26:23.020Z,84.30
2018-09-09T01:28:26.833Z,83.90
2018-09-09T01:30:30.545Z,83.80
2018-09-09T01:32:34.196Z,83.70
2018-09-09T01:34:37.856Z,83.30
2018-09-09T01:36:41.563Z,83.10
2018-09-09T01:38:46.142Z,82.60
2018-09-09T01:40:49.934Z,81.80
2018-09-09T01:42:53.717Z,81.30
2018-09-09T01:44:57.351Z,80.90
2018-09-09T01:47:00.926Z,81.40
2018-09-09T01:49:04.567Z,81.70
2018-09-09T01:51:08.458Z,82.10
2018-09-09T01:53:12.351Z,80.90
2018-09-09T01:55:15.943Z,82.00
2018-09-09T01:57:19.639Z,81.80
2018-09-09T01:59:23.255Z,81.00
2018-09-09T02:01:26.831Z,81.40
2018-09-09T02:03:30.402Z,81.40
2018-09-09T02:05:34.047Z,81.00
2018-09-09T02:07:37.692Z,80.60
2018-09-09T02:09:41.246Z,80.70
2018-09-09T02:11:45.080Z,80.80
2018-09-09T02:13:48.668Z,81.70
2018-09-09T02:15:52.371Z,82.00
2018-09-09T02:17:56.082Z,82.80
2018-09-09T02:19:59.734Z,83.80
2018-09-09T02:22:03.426Z,83.50
2018-09-09T02:24:07.156Z,83.00
2018-09-09T02:26:10.800Z,82.60
2018-09-09T02:28:14.480Z,83.00
2018-09-09T02:30:18.400Z,82.70
2018-09-09T02:32:21.988Z,82.90
2018-09-09T02:34:25.620Z,82.70
2018-09-09T02:36:29.376Z,82.30
2018-09-09T02:38:32.925Z,82.00
2018-09-09T02:40:36.655Z,81.70
2018-09-09T02:42:40.313Z,81.10
2018-09-09T02:44:43.992Z,80.70
2018-09-09T02:46:47.618Z,80.50
2018-09-09T02:48:51.356Z,80.80
2018-09-09T02:50:55.063Z,81.20
2018-09-09T02:52:58.851Z,81.20
2018-09-09T02:55:02.507Z,81.30
2018-09-09T02:57:06.314Z,81.10
2018-09-09T02:59:09.997Z,81.30
2018-09-09T03:01:13.702Z,81.00
2018-09-09T03:03:17.353Z,81.00
2018-09-09T03:05:21.163Z,81.60
2018-09-09T03:07:24.898Z,81.90
2018-09-09T03:09:28.761Z,81.70
2018-09-09T03:11:32.541Z,82.20
2018-09-09T03:13:36.456Z,81.20
2018-09-09T03:15:40.328Z,80.80
2018-09-09T03:17:44.022Z,80.20
2018-09-09T03:19:47.754Z,79.90
2018-09-09T03:21:51.467Z,79.90
2018-09-09T03:23:55.056Z,80.20
2018-09-09T03:25:59.379Z,82.20
2018-09-09T03:28:02.919Z,83.00
2018-09-09T03:30:06.502Z,83.50
2018-09-09T03:32:10.211Z,84.20
2018-09-09T03:34:13.773Z,83.50
2018-09-09T03:36:17.341Z,82.60
2018-09-09T03:38:21.198Z,82.60
2018-09-09T03:40:24.785Z,83.20
2018-09-09T03:42:28.331Z,83.10
2018-09-09T03:44:31.889Z,82.80
2018-09-09T03:46:35.655Z,82.70
2018-09-09T03:48:39.265Z,82.30
2018-09-09T03:50:42.862Z,81.50
2018-09-09T03:52:46.530Z,81.10
2018-09-09T03:54:50.167Z,81.90
2018-09-09T03:56:53.833Z,81.60
2018-09-09T03:58:57.498Z,81.20
2018-09-09T04:01:01.046Z,80.90
2018-09-09T04:03:04.673Z,80.90
2018-09-09T04:05:08.213Z,80.20
2018-09-09T04:07:11.958Z,80.20
2018-09-09T04:09:15.552Z,81.10
2018-09-09T04:11:19.190Z,80.70
2018-09-09T04:13:22.740Z,80.50
2018-09-09T04:15:26.320Z,80.70
2018-09-09T04:17:29.939Z,80.60
2018-09-09T04:19:33.503Z,80.80
2018-09-09T04:21:41.541Z,80.70
2018-09-09T04:23:45.077Z,81.10
2018-09-09T04:25:48.739Z,80.80
2018-09-09T04:27:52.346Z,80.50
2018-09-09T04:29:56.083Z,79.90
2018-09-09T04:31:59.644Z,80.00
2018-09-09T04:34:03.305Z,80.20
2018-09-09T04:36:06.957Z,80.60
2018-09-09T04:38:10.604Z,80.40
2018-09-09T04:40:14.236Z,80.90
2018-09-09T04:42:17.863Z,80.50
2018-09-09T04:44:21.563Z,80.20
2018-09-09T04:46:31.787Z,81.40
2018-09-09T04:48:35.277Z,83.60
2018-09-09T04:50:38.833Z,83.40
2018-09-09T04:52:42.663Z,82.40
2018-09-09T04:54:46.467Z,81.10
2018-09-09T04:56:50.145Z,80.60
2018-09-09T04:58:53.707Z,81.60
2018-09-09T05:00:57.268Z,82.20
2018-09-09T05:03:00.913Z,82.10
2018-09-09T05:05:04.790Z,81.70
2018-09-09T05:07:08.548Z,81.80
2018-09-09T05:09:13.061Z,81.70
2018-09-09T05:11:16.993Z,81.10
2018-09-09T05:13:20.698Z,81.00
2018-09-09T05:15:24.350Z,81.40
2018-09-09T05:17:27.910Z,82.10
2018-09-09T05:19:31.427Z,81.80
2018-09-09T05:21:34.962Z,81.10
2018-09-09T05:23:38.729Z,80.70
2018-09-09T05:25:42.336Z,81.10
2018-09-09T05:27:45.905Z,81.60
2018-09-09T05:29:49.462Z,82.00
2018-09-09T05:31:53.072Z,82.50
2018-09-09T05:33:56.720Z,82.70
2018-09-09T05:36:00.235Z,82.40
2018-09-09T05:38:03.901Z,83.40
2018-09-09T05:40:07.467Z,83.60
2018-09-09T05:42:11.029Z,84.00
2018-09-09T05:44:14.546Z,83.70
2018-09-09T05:46:18.243Z,83.60
2018-09-09T05:48:22.379Z,83.30
2018-09-09T05:50:25.920Z,84.10
2018-09-09T05:52:29.455Z,83.40
2018-09-09T05:54:32.989Z,82.90
2018-09-09T05:56:36.688Z,83.20
2018-09-09T05:58:40.202Z,83.50
2018-09-09T06:00:43.806Z,83.80
2018-09-09T06:02:47.362Z,83.80
2018-09-09T06:04:50.906Z,83.40
2018-09-09T06:06:54.630Z,83.40
2018-09-09T06:08:58.246Z,83.40
2018-09-09T06:11:02.004Z,84.00
2018-09-09T06:13:05.597Z,84.20
2018-09-09T06:15:09.316Z,83.70
2018-09-09T06:17:12.914Z,85.10
2018-09-09T06:19:16.492Z,85.30
2018-09-09T06:21:20.019Z,85.40
2018-09-09T06:23:23.558Z,84.50
2018-09-09T06:25:27.087Z,84.10
2018-09-09T06:27:30.694Z,85.30
2018-09-09T06:29:34.190Z,85.90
2018-09-09T06:31:37.718Z,85.60
2018-09-09T06:33:41.277Z,84.80
2018-09-09T06:35:44.816Z,85.20
2018-09-09T06:37:48.600Z,85.40
2018-09-09T06:39:52.154Z,85.20
2018-09-09T06:41:55.807Z,85.70
2018-09-09T06:43:59.338Z,87.20
2018-09-09T06:46:02.830Z,87.20
2018-09-09T06:48:06.425Z,87.30
2018-09-09T06:50:10.046Z,86.10
2018-09-09T06:52:13.585Z,85.50
2018-09-09T06:54:17.307Z,86.40
2018-09-09T06:56:20.848Z,85.40
2018-09-09T06:58:24.400Z,85.40
2018-09-09T07:00:27.957Z,85.70
2018-09-09T07:02:31.500Z,86.10
2018-09-09T07:04:35.147Z,85.30
2018-09-09T07:06:38.677Z,85.10
2018-09-09T07:08:42.378Z,83.80
2018-09-09T07:10:45.899Z,83.50
2018-09-09T07:12:49.495Z,82.90
2018-09-09T07:14:53.183Z,83.50
2018-09-09T07:16:56.701Z,84.00
2018-09-09T07:19:00.414Z,83.70
2018-09-09T07:21:04.068Z,84.80
2018-09-09T07:23:07.736Z,84.60
2018-09-09T07:25:11.263Z,83.90
2018-09-09T07:27:14.837Z,83.10
2018-09-09T07:29:18.454Z,83.50
2018-09-09T07:31:22.005Z,84.10
2018-09-09T07:33:25.623Z,83.90
2018-09-09T07:35:29.328Z,83.00
2018-09-09T07:37:33.177Z,82.80
2018-09-09T07:39:36.841Z,82.10
2018-09-09T07:41:40.388Z,82.40
2018-09-09T07:43:43.925Z,82.20
2018-09-09T07:45:47.438Z,82.60
2018-09-09T07:47:51.041Z,82.20
2018-09-09T07:49:54.570Z,81.60
2018-09-09T07:51:58.183Z,82.30
2018-09-09T07:54:01.736Z,81.80
2018-09-09T07:56:05.887Z,80.70
2018-09-09T07:58:09.480Z,81.00
2018-09-09T08:00:13.077Z,81.60
2018-09-09T08:02:16.804Z,81.30
2018-09-09T08:04:20.415Z,81.10
2018-09-09T08:06:23.906Z,81.40
2018-09-09T08:08:27.480Z,81.20
2018-09-09T08:10:31.017Z,80.80
2018-09-09T08:12:34.644Z,80.70
2018-09-09T08:14:38.184Z,80.50
2018-09-09T08:16:41.730Z,80.40
2018-09-09T08:18:45.274Z,80.10
2018-09-09T08:20:48.793Z,79.70
2018-09-09T08:22:52.290Z,80.10
2018-09-09T08:24:55.828Z,80.90
2018-09-09T08:26:59.639Z,81.10
2018-09-09T08:29:03.176Z,80.90
2018-09-09T08:31:06.734Z,80.80
2018-09-09T08:33:10.367Z,81.30
2018-09-09T08:35:14.125Z,81.50
2018-09-09T08:37:17.683Z,81.10
2018-09-09T08:39:21.246Z,80.30
2018-09-09T08:41:24.867Z,80.80
2018-09-09T08:43:28.383Z,79.50
2018-09-09T08:45:31.975Z,79.10
2018-09-09T08:47:35.455Z,78.10
2018-09-09T08:49:39.039Z,78.20
2018-09-09T08:51:42.769Z,79.10
2018-09-09T08:53:46.275Z,78.10
2018-09-09T08:55:49.981Z,78.20
2018-09-09T08:57:53.507Z,77.80
2018-09-09T08:59:57.064Z,76.20
2018-09-09T09:02:00.635Z,74.40
2018-09-09T09:04:04.218Z,73.70
2018-09-09T09:06:07.738Z,74.00
2018-09-09T09:08:11.893Z,73.30
2018-09-09T09:10:15.356Z,72.90
2018-09-09T09:12:18.872Z,71.40
2018-09-09T09:14:22.445Z,71.80
2018-09-09T09:16:25.964Z,70.40
2018-09-09T09:18:29.592Z,71.60
2018-09-09T09:20:33.190Z,70.40
2018-09-09T09:22:36.867Z,70.30
2018-09-09T09:24:40.614Z,69.10
2018-09-09T09:26:44.244Z,68.90
2018-09-09T09:28:47.901Z,69.80
2018-09-09T09:30:52.044Z,70.00
2018-09-09T09:32:55.586Z,69.30
2018-09-09T09:34:59.215Z,70.40
2018-09-09T09:37:02.763Z,70.20
2018-09-09T09:39:07.392Z,69.40
2018-09-09T09:41:10.993Z,69.10
2018-09-09T09:43:14.523Z,70.50
2018-09-09T09:45:18.143Z,69.70
2018-09-09T09:47:21.651Z,69.40
2018-09-09T09:49:25.174Z,70.20
2018-09-09T09:51:28.755Z,69.40
2018-09-09T09:53:32.275Z,69.10
2018-09-09T09:55:35.866Z,69.00
2018-09-09T09:57:39.354Z,67.30
2018-09-09T09:59:42.861Z,69.00
2018-09-09T10:01:46.412Z,67.00
2018-09-09T10:03:49.915Z,67.80
2018-09-09T10:05:53.464Z,68.70
2018-09-09T10:07:57.003Z,67.40
2018-09-09T10:10:00.539Z,66.60
2018-09-09T10:12:04.088Z,67.70
2018-09-09T10:14:07.779Z,68.60
2018-09-09T10:16:11.263Z,68.70
2018-09-09T10:18:14.992Z,67.30
2018-09-09T10:20:18.544Z,68.30
2018-09-09T10:22:22.060Z,66.30
2018-09-09T10:24:25.609Z,66.20
2018-09-09T10:26:29.267Z,66.00
2018-09-09T10:28:32.840Z,65.60
2018-09-09T10:30:36.363Z,63.90
2018-09-09T10:32:39.851Z,64.90
2018-09-09T10:34:43.578Z,64.00
2018-09-09T10:36:47.134Z,63.80
2018-09-09T10:38:50.813Z,68.20
2018-09-09T10:40:54.389Z,69.30
2018-09-09T10:42:58.447Z,69.80
2018-09-09T10:45:01.974Z,68.50
2018-09-09T10:47:05.749Z,67.80
2018-09-09T10:49:09.191Z,68.90
2018-09-09T10:51:12.757Z,68.00
2018-09-09T10:53:16.399Z,67.30
2018-09-09T10:55:19.819Z,67.50
2018-09-09T10:57:23.348Z,66.10
2018-09-09T10:59:26.972Z,66.10
2018-09-09T11:01:30.470Z,65.80
2018-09-09T11:03:33.972Z,65.50
2018-09-09T11:05:37.617Z,66.70
2018-09-09T11:07:41.337Z,67.30
2018-09-09T11:09:44.796Z,66.70
2018-09-09T11:11:48.318Z,67.60
2018-09-09T11:13:51.854Z,66.00
2018-09-09T11:15:55.503Z,64.30
2018-09-09T11:17:59.050Z,64.60
2018-09-09T11:20:02.595Z,63.80
2018-09-09T11:22:06.258Z,62.50
2018-09-09T11:24:10.058Z,61.80
2018-09-09T11:26:13.516Z,61.90
2018-09-09T11:28:17.010Z,58.70
2018-09-09T11:30:20.514Z,58.20
2018-09-09T11:32:24.082Z,59.00
2018-09-09T11:34:27.588Z,57.90
2018-09-09T11:36:31.230Z,55.50
2018-09-09T11:38:34.743Z,54.80
2018-09-09T11:40:38.277Z,53.80
2018-09-09T11:42:41.789Z,52.40
2018-09-09T11:44:45.340Z,53.90
2018-09-09T11:46:48.945Z,54.70
2018-09-09T11:48:52.521Z,54.70
2018-09-09T11:50:56.223Z,53.40
2018-09-09T11:52:59.765Z,55.10
2018-09-09T11:55:03.297Z,54.50
2018-09-09T11:57:06.968Z,53.40
2018-09-09T11:59:10.550Z,54.10
2018-09-09T12:01:14.301Z,54.60
2018-09-09T12:03:17.823Z,53.60
2018-09-09T12:05:21.379Z,54.50
2018-09-09T12:07:24.894Z,54.60
2018-09-09T12:09:28.482Z,54.70
2018-09-09T12:11:32.019Z,55.40
2018-09-09T12:13:35.597Z,54.40
2018-09-09T12:15:39.067Z,53.60
2018-09-09T12:17:42.595Z,52.70
2018-09-09T12:19:46.357Z,52.60
2018-09-09T12:21:50.109Z,52.20
2018-09-09T12:23:53.609Z,51.90
2018-09-09T12:25:57.175Z,52.30
2018-09-09T12:28:00.821Z,50.50
2018-09-09T12:30:04.527Z,49.40
2018-09-09T12:32:08.202Z,50.50
2018-09-09T12:34:11.707Z,50.10
2018-09-09T12:36:15.294Z,51.10
2018-09-09T12:38:18.944Z,51.60
2018-09-09T12:40:22.482Z,50.70
2018-09-09T12:42:26.111Z,50.70
2018-09-09T12:44:34.888Z,50.00
2018-09-09T12:46:43.936Z,50.90
2018-09-09T12:48:52.871Z,51.70
2018-09-09T12:50:56.427Z,51.60
2018-09-09T12:52:59.960Z,52.50
2018-09-09T12:55:03.484Z,51.20
2018-09-09T12:57:07.026Z,51.80
2018-09-09T12:59:10.593Z,51.80
2018-09-09T13:01:14.131Z,51.90
2018-09-09T13:03:17.701Z,52.00
2018-09-09T13:05:21.328Z,51.20
2018-09-09T13:07:24.982Z,50.10
2018-09-09T13:09:28.409Z,50.50
2018-09-09T13:11:31.938Z,49.70
2018-09-09T13:13:35.462Z,51.10
2018-09-09T13:15:39.091Z,51.10
2018-09-09T13:17:42.699Z,50.80
2018-09-09T13:19:46.194Z,50.80
2018-09-09T13:21:49.715Z,51.40
2018-09-09T13:23:53.384Z,50.50
2018-09-09T13:25:56.912Z,51.30
2018-09-09T13:28:00.462Z,51.30
2018-09-09T13:30:04.372Z,50.10
2018-09-09T13:32:07.952Z,51.40
2018-09-09T13:34:11.619Z,49.80
2018-09-09T13:36:15.255Z,50.10
2018-09-09T13:38:18.923Z,51.90
2018-09-09T13:40:22.516Z,51.20
2018-09-09T13:42:26.730Z,51.10
2018-09-09T13:44:30.231Z,50.90
2018-09-09T13:46:33.756Z,50.20
2018-09-09T13:48:37.426Z,50.20
2018-09-09T13:50:41.019Z,50.10
2018-09-09T13:52:44.660Z,49.70
2018-09-09T13:54:48.244Z,48.50
2018-09-09T13:56:51.777Z,48.70
2018-09-09T13:58:55.390Z,49.80
2018-09-09T14:00:58.930Z,51.90
2018-09-09T14:03:02.449Z,51.50
2018-09-09T14:05:06.008Z,50.10
2018-09-09T14:07:09.636Z,50.30
2018-09-09T14:09:13.142Z,49.80
2018-09-09T14:11:16.733Z,49.60
2018-09-09T14:13:20.244Z,50.60
2018-09-09T14:15:23.793Z,49.70
2018-09-09T14:17:27.346Z,50.00
2018-09-09T14:19:30.943Z,50.70
2018-09-09T14:21:34.515Z,49.40
2018-09-09T14:23:38.075Z,48.90
2018-09-09T14:25:41.713Z,46.90
2018-09-09T14:27:45.257Z,50.10
2018-09-09T14:29:49.084Z,53.60
2018-09-09T14:31:52.584Z,49.30
2018-09-09T14:33:56.108Z,47.10
2018-09-09T14:35:59.671Z,47.40
2018-09-09T14:38:03.223Z,46.70
2018-09-09T14:40:06.880Z,47.40
2018-09-09T14:42:10.591Z,45.60
2018-09-09T14:44:14.120Z,46.40
2018-09-09T14:46:17.628Z,47.30
2018-09-09T14:48:21.265Z,47.10
2018-09-09T14:50:25.455Z,45.10
2018-09-09T14:52:28.977Z,44.30
2018-09-09T14:54:32.572Z,44.40
2018-09-09T14:56:36.079Z,44.40
2018-09-09T14:58:39.664Z,45.50
2018-09-09T15:00:43.193Z,46.40
2018-09-09T15:02:46.754Z,46.60
2018-09-09T15:04:50.388Z,46.20
2018-09-09T15:06:54.054Z,44.40
2018-09-09T15:08:57.754Z,45.60
2018-09-09T15:11:01.360Z,45.20
2018-09-09T15:13:05.075Z,45.50
2018-09-09T15:15:08.732Z,45.10
2018-09-09T15:17:12.305Z,45.20
2018-09-09T15:19:15.877Z,45.50
2018-09-09T15:21:19.390Z,45.40
2018-09-09T15:23:22.969Z,44.60
2018-09-09T15:25:26.471Z,45.80
2018-09-09T15:27:30.042Z,45.60
2018-09-09T15:29:33.598Z,45.10
2018-09-09T15:31:37.113Z,45.50
2018-09-09T15:33:40.619Z,45.20
2018-09-09T15:35:44.310Z,44.60
2018-09-09T15:37:47.846Z,45.40
2018-09-09T15:39:51.564Z,45.80
2018-09-09T15:41:55.089Z,47.70
2018-09-09T15:43:58.783Z,46.50
2018-09-09T15:46:02.388Z,46.00
2018-09-09T15:48:05.995Z,46.30
2018-09-09T15:50:09.598Z,46.40
2018-09-09T15:52:13.174Z,46.10
2018-09-09T15:54:16.783Z,46.20
2018-09-09T15:56:20.336Z,46.70
2018-09-09T15:58:23.887Z,46.70
2018-09-09T16:00:27.431Z,46.10
2018-09-09T16:02:30.928Z,47.00
2018-09-09T16:04:34.563Z,46.70
2018-09-09T16:06:38.179Z,47.90
2018-09-09T16:08:41.731Z,47.70
2018-09-09T16:10:45.264Z,48.20
2018-09-09T16:12:48.839Z,47.60
2018-09-09T16:14:52.379Z,46.80
2018-09-09T16:16:56.052Z,46.80
2018-09-09T16:18:59.696Z,47.10
2018-09-09T16:21:03.209Z,48.10
2018-09-09T16:23:06.745Z,47.70
2018-09-09T16:25:10.359Z,47.90
2018-09-09T16:27:13.875Z,47.40
2018-09-09T16:29:17.427Z,48.50
2018-09-09T16:31:20.969Z,48.70
2018-09-09T16:33:24.544Z,48.50
2018-09-09T16:35:28.079Z,48.10
2018-09-09T16:37:31.588Z,47.00
2018-09-09T16:39:35.134Z,47.90
2018-09-09T16:41:38.881Z,47.60
2018-09-09T16:43:42.463Z,47.60
2018-09-09T16:45:46.068Z,47.80
2018-09-09T16:47:49.679Z,48.40
2018-09-09T16:49:53.276Z,48.50
2018-09-09T16:51:56.975Z,48.80
2018-09-09T16:54:00.545Z,48.30
2018-09-09T16:56:04.345Z,47.90
2018-09-09T16:58:08.288Z,47.70
2018-09-09T17:00:11.839Z,46.50
2018-09-09T17:02:15.472Z,45.90
2018-09-09T17:04:19.077Z,44.60
2018-09-09T17:06:22.592Z,45.10
2018-09-09T17:08:26.145Z,45.70
2018-09-09T17:10:29.698Z,46.30
2018-09-09T17:12:33.177Z,46.10
2018-09-09T17:14:36.733Z,45.50
2018-09-09T17:16:40.389Z,45.40
2018-09-09T17:18:43.908Z,45.60
2018-09-09T17:20:47.491Z,46.90
2018-09-09T17:22:51.235Z,48.60
2018-09-09T17:24:54.993Z,48.30
2018-09-09T17:26:58.536Z,51.10
2018-09-09T17:29:02.204Z,52.50
2018-09-09T17:31:05.765Z,52.80
2018-09-09T17:33:09.641Z,53.20
2018-09-09T17:35:13.284Z,53.50
2018-09-09T17:37:16.803Z,54.20
2018-09-09T17:39:20.371Z,54.40
2018-09-09T17:41:23.849Z,54.90
2018-09-09T17:43:27.592Z,55.50
2018-09-09T17:45:31.129Z,56.10
2018-09-09T17:47:34.665Z,55.80
2018-09-09T17:49:38.445Z,56.50
2018-09-09T17:51:42.141Z,55.90
2018-09-09T17:53:45.740Z,56.60
2018-09-09T17:55:49.284Z,56.50
2018-09-09T17:57:52.932Z,55.70
2018-09-09T17:59:56.544Z,57.30
2018-09-09T18:02:00.153Z,58.40
2018-09-09T18:04:03.803Z,59.60
2018-09-09T18:06:07.466Z,60.60
2018-09-09T18:08:11.125Z,61.00
2018-09-09T18:10:14.828Z,61.50
2018-09-09T18:12:18.372Z,61.80
2018-09-09T18:14:21.942Z,62.50
2018-09-09T18:16:25.635Z,62.90
2018-09-09T18:18:29.267Z,62.70
2018-09-09T18:20:32.905Z,62.50
2018-09-09T18:22:36.372Z,61.60
2018-09-09T18:24:40.067Z,62.00
2018-09-09T18:26:43.697Z,62.70
2018-09-09T18:28:47.271Z,63.20
2018-09-09T18:30:51.295Z,63.40
2018-09-09T18:32:54.877Z,63.50
2018-09-09T18:34:58.478Z,63.50
2018-09-09T18:37:02.123Z,62.80
2018-09-09T18:39:08.047Z,61.70
2018-09-09T18:41:11.587Z,64.20
2018-09-09T18:43:15.144Z,64.90
2018-09-09T18:45:18.750Z,65.60
2018-09-09T18:47:31.493Z,65.60
2018-09-09T18:49:35.360Z,66.30
2018-09-09T18:51:39.076Z,65.20
2018-09-09T18:53:42.708Z,65.10
2018-09-09T18:55:46.362Z,65.60
2018-09-09T18:57:50.028Z,65.60
2018-09-09T18:59:53.702Z,65.40
2018-09-09T19:01:57.273Z,65.20
2018-09-09T19:04:00.956Z,65.10
2018-09-09T19:06:04.711Z,64.90
2018-09-09T19:08:08.294Z,63.70
2018-09-09T19:10:11.868Z,62.60
2018-09-09T19:12:15.827Z,63.40
2018-09-09T19:14:19.442Z,63.30
2018-09-09T19:16:23.153Z,63.60
2018-09-09T19:18:26.856Z,63.20
2018-09-09T19:20:30.556Z,63.10
2018-09-09T19:22:34.242Z,63.10
2018-09-09T19:24:37.774Z,63.50
2018-09-09T19:26:41.340Z,62.70
2018-09-09T19:28:45.020Z,64.30
2018-09-09T19:30:48.579Z,64.20
2018-09-09T19:32:52.127Z,66.00
2018-09-09T19:34:55.842Z,66.00
2018-09-09T19:36:59.469Z,66.40
2018-09-09T19:39:03.452Z,67.00
2018-09-09T19:41:07.026Z,67.60
2018-09-09T19:43:10.672Z,66.20
2018-09-09T19:45:21.037Z,66.40
2018-09-09T19:47:24.723Z,66.00
2018-09-09T19:49:28.395Z,65.70
2018-09-09T19:51:32.068Z,64.50
2018-09-09T19:53:35.663Z,65.20
2018-09-09T19:55:39.321Z,64.80
2018-09-09T19:57:43.019Z,65.10
2018-09-09T19:59:46.657Z,65.50
2018-09-09T20:01:50.746Z,65.80
2018-09-09T20:03:54.410Z,65.00
2018-09-09T20:05:58.021Z,64.90
2018-09-09T20:08:01.579Z,65.10
2018-09-09T20:10:05.197Z,64.30
2018-09-09T20:12:09.050Z,64.20
2018-09-09T20:14:12.619Z,64.30
2018-09-09T20:16:16.169Z,64.00
2018-09-09T20:18:19.748Z,64.30
2018-09-09T20:20:23.434Z,64.10
2018-09-09T20:22:27.028Z,63.90
2018-09-09T20:24:30.706Z,63.80
2018-09-09T20:26:34.192Z,63.80
2018-09-09T20:28:37.783Z,64.00
2018-09-09T20:30:41.983Z,64.10
2018-09-09T20:32:45.629Z,64.70
2018-09-09T20:34:49.113Z,65.70
2018-09-09T20:36:52.664Z,64.70
2018-09-09T20:38:56.351Z,64.30
2018-09-09T20:41:00.021Z,64.30
2018-09-09T20:43:03.618Z,63.90
2018-09-09T20:45:07.529Z,64.70
2018-09-09T20:47:11.064Z,64.40
2018-09-09T20:49:14.756Z,64.80
2018-09-09T20:51:18.288Z,64.40
2018-09-09T20:53:21.872Z,64.90
2018-09-09T20:55:25.519Z,64.60
2018-09-09T20:57:29.071Z,65.10
2018-09-09T20:59:32.582Z,64.90
2018-09-09T21:01:36.261Z,65.00
2018-09-09T21:03:39.967Z,65.80
2018-09-09T21:05:43.489Z,66.00
2018-09-09T21:07:47.136Z,66.70
2018-09-09T21:09:50.731Z,67.00
2018-09-09T21:11:54.326Z,67.30
2018-09-09T21:13:58.047Z,67.40
2018-09-09T21:16:01.559Z,68.10
2018-09-09T21:18:05.215Z,68.40
2018-09-09T21:20:08.912Z,67.80
2018-09-09T21:22:12.484Z,66.70
2018-09-09T21:24:16.119Z,66.60
2018-09-09T21:26:19.688Z,66.20
2018-09-09T21:28:23.861Z,66.00
2018-09-09T21:30:27.437Z,65.70
2018-09-09T21:32:31.014Z,65.70
2018-09-09T21:34:34.576Z,65.60
2018-09-09T21:36:38.187Z,65.40
2018-09-09T21:38:41.894Z,65.80
2018-09-09T21:40:45.446Z,66.70
2018-09-09T21:42:49.175Z,68.80
2018-09-09T21:44:52.712Z,68.80
2018-09-09T21:46:56.232Z,69.20
2018-09-09T21:48:59.922Z,69.60
2018-09-09T21:51:03.796Z,71.20
2018-09-09T21:53:07.380Z,71.80
2018-09-09T21:55:10.935Z,71.60
2018-09-09T21:57:14.454Z,71.20
2018-09-09T21:59:18.025Z,70.70
2018-09-09T22:01:26.753Z,70.90
2018-09-09T22:03:30.311Z,71.10
2018-09-09T22:05:34.003Z,70.40
2018-09-09T22:07:37.732Z,69.60
2018-09-09T22:09:42.600Z,69.60
2018-09-09T22:11:46.248Z,70.90
2018-09-09T22:13:49.855Z,70.00
2018-09-09T22:15:53.704Z,70.70
2018-09-09T22:17:57.548Z,70.50
2018-09-09T22:20:01.163Z,70.50
2018-09-09T22:22:04.687Z,70.00
2018-09-09T22:24:08.369Z,70.60
2018-09-09T22:26:12.239Z,71.20
2018-09-09T22:28:15.848Z,71.80
2018-09-09T22:30:19.446Z,72.20
2018-09-09T22:32:23.115Z,72.70
2018-09-09T22:34:26.753Z,72.80
2018-09-09T22:36:30.286Z,73.70
2018-09-09T22:38:33.864Z,73.20
2018-09-09T22:40:37.592Z,72.50
2018-09-09T22:42:41.131Z,71.60
2018-09-09T22:44:44.687Z,71.20
2018-09-09T22:46:48.176Z,70.70
2018-09-09T22:48:51.776Z,70.40
2018-09-09T22:50:55.453Z,71.10
2018-09-09T22:52:58.961Z,72.90
2018-09-09T22:55:02.605Z,74.50
2018-09-09T22:57:06.203Z,74.20
2018-09-09T22:59:09.784Z,74.40
2018-09-09T23:01:13.403Z,74.40
2018-09-09T23:03:17.088Z,75.20
2018-09-09T23:05:20.808Z,75.50
2018-09-09T23:07:24.324Z,75.50
2018-09-09T23:09:27.850Z,75.20
2018-09-09T23:11:31.443Z,74.30
2018-09-09T23:13:34.970Z,73.80
2018-09-09T23:15:39.031Z,73.70
2018-09-09T23:17:42.656Z,74.40
2018-09-09T23:19:46.264Z,75.80
2018-09-09T23:21:50.070Z,75.80
2018-09-09T23:23:53.657Z,75.40
2018-09-09T23:25:57.377Z,76.30
2018-09-09T23:28:01.029Z,76.40
2018-09-09T23:30:04.783Z,76.30
2018-09-09T23:32:08.311Z,77.20
2018-09-09T23:34:12.069Z,76.90
2018-09-09T23:36:15.625Z,76.90
2018-09-09T23:38:19.317Z,78.00
2018-09-09T23:40:22.858Z,78.50
2018-09-09T23:42:26.371Z,78.60
2018-09-09T23:44:29.936Z,77.60
2018-09-09T23:46:33.482Z,77.80
2018-09-09T23:48:37.220Z,77.40
2018-09-09T23:50:40.745Z,77.00
2018-09-09T23:52:44.270Z,76.90
2018-09-09T23:54:47.893Z,78.00
2018-09-09T23:56:51.768Z,77.70
2018-09-09T23:58:55.296Z,78.50
